X  Luk Metar data     EKRN Bornholm Airport
Temperatur
3°C Temperatur
3°C Duggpunkt
100% Fugtighed



Vind
1 M/S
2 MPT
3 KM/T
2 KNOB



310°
NV
Nuværende forhold

Overkyet Overkyet
Tryk 1009.92 (hPa) - 29.82 (inHg)
Sigt 6.2 (mil) - 10 (km)
Lufthavn
Lufthavnskode EKRN

Lokation: Bornholm Airport
Afstand: 20 (km)

Metar:
EKRN 270820Z AUTO 31002KT 9999 OVC036/// 03/03 Q1010

Tid: 27-01-2021 09:20 CET